createdAt,value
2018-11-20T00:00:45.038Z,3.80
2018-11-20T00:03:31.568Z,3.60
2018-11-20T00:06:12.452Z,3.73
2018-11-20T00:08:50.618Z,3.70
2018-11-20T00:11:26.807Z,4.23
2018-11-20T00:14:26.692Z,5.03
2018-11-20T00:17:20.510Z,4.73
2018-11-20T00:19:57.700Z,9.23
2018-11-20T00:22:56.187Z,5.80
2018-11-20T00:25:49.559Z,4.70
2018-11-20T00:28:37.388Z,5.07
2018-11-20T00:31:23.588Z,4.83
2018-11-20T00:34:23.144Z,4.90
2018-11-20T00:37:13.823Z,4.43
2018-11-20T00:39:51.082Z,4.47
2018-11-20T00:42:50.778Z,4.23
2018-11-20T00:45:47.648Z,4.60
2018-11-20T00:48:38.468Z,5.10
2018-11-20T00:51:35.368Z,4.60
2018-11-20T00:54:32.385Z,4.30
2018-11-20T00:57:13.940Z,5.10
2018-11-20T00:59:52.320Z,4.57
2018-11-20T01:02:58.632Z,4.43
2018-11-20T01:05:58.676Z,4.40
2018-11-20T01:08:59.090Z,4.60
2018-11-20T01:11:52.784Z,4.10
2018-11-20T01:14:46.977Z,4.40
2018-11-20T01:17:46.867Z,4.33
2018-11-20T01:20:33.294Z,4.13
2018-11-20T01:23:26.985Z,4.43
2018-11-20T01:26:14.920Z,4.30
2018-11-20T01:29:05.656Z,4.03
2018-11-20T01:31:49.442Z,5.03
2018-11-20T01:34:40.297Z,4.67
2018-11-20T01:37:30.946Z,4.57
2018-11-20T01:40:09.409Z,5.30
2018-11-20T01:42:55.735Z,4.90
2018-11-20T01:45:43.527Z,4.67
2018-11-20T01:48:43.367Z,4.83
2018-11-20T01:51:34.336Z,5.10
2018-11-20T01:54:28.060Z,4.93
2018-11-20T01:57:21.923Z,4.47
2018-11-20T02:00:15.396Z,5.10
2018-11-20T02:02:57.009Z,3.87
2018-11-20T02:05:40.014Z,5.13
2018-11-20T02:08:33.423Z,5.00
2018-11-20T02:11:23.960Z,5.03
2018-11-20T02:14:31.501Z,4.53
2018-11-20T02:17:36.034Z,4.90
2018-11-20T02:20:18.573Z,5.07
2018-11-20T02:23:04.998Z,4.70
2018-11-20T02:25:58.984Z,5.27
2018-11-20T02:28:45.273Z,5.13
2018-11-20T02:31:38.999Z,4.63
2018-11-20T02:34:28.160Z,4.50
2018-11-20T02:37:14.849Z,4.60
2018-11-20T02:40:05.472Z,4.80
2018-11-20T02:42:51.841Z,4.60
2018-11-20T02:45:57.980Z,4.60
2018-11-20T02:48:45.896Z,5.23
2018-11-20T02:51:33.790Z,5.20
2018-11-20T02:54:24.048Z,4.47
2018-11-20T02:57:10.641Z,5.30
2018-11-20T03:00:01.667Z,5.43
2018-11-20T03:03:04.672Z,4.60
2018-11-20T03:05:55.272Z,4.80
2018-11-20T03:08:55.066Z,4.83
2018-11-20T03:11:41.625Z,4.60
2018-11-20T03:14:21.026Z,5.40
2018-11-20T03:17:09.159Z,5.20
2018-11-20T03:19:55.738Z,5.20
2018-11-20T03:22:49.291Z,4.77
2018-11-20T03:26:02.709Z,5.07
2018-11-20T03:29:05.827Z,4.67
2018-11-20T03:31:49.399Z,5.40
2018-11-20T03:34:49.477Z,5.83
2018-11-20T03:37:36.306Z,5.27
2018-11-20T03:40:23.781Z,4.83
2018-11-20T03:43:17.387Z,4.67
2018-11-20T03:46:11.217Z,5.07
2018-11-20T03:48:57.893Z,5.10
2018-11-20T03:51:44.380Z,5.47
2018-11-20T03:54:34.915Z,5.37
2018-11-20T03:57:31.666Z,5.87
2018-11-20T04:00:15.326Z,5.20
2018-11-20T04:03:08.978Z,5.07
2018-11-20T04:05:59.776Z,4.70
2018-11-20T04:08:39.305Z,4.97
2018-11-20T04:11:25.836Z,5.77
2018-11-20T04:14:12.420Z,5.90
2018-11-20T04:16:53.069Z,5.10
2018-11-20T04:19:39.469Z,5.63
2018-11-20T04:22:25.663Z,5.87
2018-11-20T04:25:19.700Z,6.03
2018-11-20T04:28:02.968Z,5.40
2018-11-20T04:31:25.653Z,5.63
2018-11-20T04:34:11.913Z,5.30
2018-11-20T04:37:13.084Z,5.10
2018-11-20T04:40:00.923Z,5.20
2018-11-20T04:42:51.992Z,5.17
2018-11-20T04:45:38.653Z,4.60
2018-11-20T04:48:17.546Z,5.13
2018-11-20T04:51:05.387Z,5.10
2018-11-20T04:54:11.522Z,5.40
2018-11-20T04:56:57.879Z,4.63
2018-11-20T04:59:45.742Z,5.10
2018-11-20T05:02:45.641Z,5.23
2018-11-20T05:05:32.127Z,5.20
2018-11-20T05:08:28.979Z,4.93
2018-11-20T05:11:16.881Z,5.10
2018-11-20T05:14:19.777Z,4.83
2018-11-20T05:17:06.159Z,5.50
2018-11-20T05:19:59.627Z,4.90
2018-11-20T05:22:52.573Z,5.03
2018-11-20T05:25:34.537Z,4.93
2018-11-20T05:28:22.410Z,5.40
2018-11-20T05:31:10.361Z,4.83
2018-11-20T05:33:56.543Z,4.47
2018-11-20T05:36:44.412Z,4.77
2018-11-20T05:39:47.433Z,5.00
2018-11-20T05:42:34.099Z,4.77
2018-11-20T05:45:16.420Z,4.63
2018-11-20T05:48:13.429Z,4.53
2018-11-20T05:51:04.551Z,4.93
2018-11-20T05:54:04.500Z,4.90
2018-11-20T05:56:52.350Z,4.90
2018-11-20T05:59:28.903Z,5.47
2018-11-20T06:02:25.665Z,4.80
2018-11-20T06:05:14.442Z,5.30
2018-11-20T06:08:02.248Z,4.93
2018-11-20T06:11:00.548Z,4.87
2018-11-20T06:13:48.374Z,4.60
2018-11-20T06:16:48.255Z,4.97
2018-11-20T06:19:34.631Z,4.90
2018-11-20T06:22:21.307Z,5.63
2018-11-20T06:25:05.082Z,5.67
2018-11-20T06:27:49.678Z,5.57
2018-11-20T06:30:43.538Z,5.23
2018-11-20T06:33:35.403Z,5.47
2018-11-20T06:36:23.263Z,5.57
2018-11-20T06:39:26.078Z,5.60
2018-11-20T06:42:31.825Z,5.63
2018-11-20T06:45:19.718Z,5.43
2018-11-20T06:48:19.582Z,5.40
2018-11-20T06:51:10.082Z,5.93
2018-11-20T06:53:57.878Z,6.63
2018-11-20T06:56:47.140Z,5.37
2018-11-20T06:59:33.421Z,5.93
2018-11-20T07:02:30.267Z,4.90
2018-11-20T07:05:16.521Z,5.37
2018-11-20T07:08:10.238Z,5.47
2018-11-20T07:10:48.298Z,5.23
2018-11-20T07:14:02.002Z,5.73
2018-11-20T07:16:55.142Z,5.50
2018-11-20T07:19:45.307Z,5.57
2018-11-20T07:22:49.573Z,5.00
2018-11-20T07:25:46.014Z,4.83
2018-11-20T07:28:33.897Z,5.87
2018-11-20T07:31:22.695Z,5.33
2018-11-20T07:34:25.530Z,5.30
2018-11-20T07:37:11.839Z,5.33
2018-11-20T07:40:05.312Z,5.00
2018-11-20T07:42:51.854Z,4.30
2018-11-20T07:48:47.906Z,4.47
2018-11-20T07:51:35.824Z,4.10
2018-11-20T07:54:21.876Z,4.07
2018-11-20T07:57:12.737Z,3.93
2018-11-20T07:59:59.288Z,4.00
2018-11-20T08:02:55.778Z,4.20
2018-11-20T08:05:51.815Z,3.97
2018-11-20T08:08:38.061Z,4.30
2018-11-20T08:11:14.381Z,4.20
2018-11-20T08:14:02.185Z,4.47
2018-11-20T08:16:58.999Z,4.47
2018-11-20T08:19:52.146Z,4.73
2018-11-20T08:22:38.556Z,6.27
2018-11-20T08:25:41.924Z,5.43
2018-11-20T08:28:32.356Z,5.63
2018-11-20T08:31:26.185Z,6.40
2018-11-20T08:34:12.552Z,5.20
2018-11-20T08:36:58.931Z,4.67
2018-11-20T08:39:45.492Z,4.33
2018-11-20T08:42:33.380Z,4.47
2018-11-20T08:45:20.073Z,4.57
2018-11-20T08:48:20.252Z,4.50
2018-11-20T08:51:14.006Z,4.80
2018-11-20T08:54:04.511Z,4.60
2018-11-20T08:57:04.462Z,4.50
2018-11-20T09:00:01.211Z,4.80
2018-11-20T09:02:58.043Z,5.00
2018-11-20T09:05:45.809Z,5.10
2018-11-20T09:08:39.640Z,9.10
2018-11-20T09:11:25.851Z,4.27
2018-11-20T09:14:28.691Z,4.93
2018-11-20T09:17:22.236Z,4.77
2018-11-20T09:20:10.482Z,4.47
2018-11-20T09:22:56.267Z,4.60
2018-11-20T09:25:42.722Z,4.77
2018-11-20T09:28:39.470Z,5.57
2018-11-20T09:31:36.012Z,6.10
2018-11-20T09:34:29.878Z,7.37
2018-11-20T09:37:22.602Z,9.03
2018-11-20T09:40:45.275Z,5.60
2018-11-20T09:43:39.282Z,4.97
2018-11-20T09:46:25.821Z,4.90
2018-11-20T09:49:12.698Z,5.13
2018-11-20T09:51:53.870Z,6.60
2018-11-20T09:54:50.819Z,4.97
2018-11-20T09:57:47.484Z,5.17
2018-11-20T10:00:35.315Z,6.50
2018-11-20T10:03:11.091Z,5.57
2018-11-20T10:05:57.695Z,6.20
2018-11-20T10:08:45.601Z,8.93
2018-11-20T10:11:31.813Z,9.67
2018-11-20T10:14:28.421Z,7.40
2018-11-20T10:17:14.926Z,6.23
2018-11-20T10:20:12.196Z,5.70
2018-11-20T10:22:51.892Z,7.40
2018-11-20T10:25:41.180Z,6.57
2018-11-20T10:28:25.916Z,5.23
2018-11-20T10:31:19.894Z,5.73
2018-11-20T10:34:06.394Z,5.30
2018-11-20T10:36:52.635Z,5.70
2018-11-20T10:39:38.995Z,4.73
2018-11-20T10:42:29.799Z,4.97
2018-11-20T10:45:17.696Z,4.70
2018-11-20T10:48:04.111Z,5.30
2018-11-20T10:50:50.331Z,5.20
2018-11-20T10:53:36.784Z,4.97
2018-11-20T10:56:30.843Z,4.90
2018-11-20T10:59:17.076Z,4.73
2018-11-20T11:02:03.439Z,4.93
2018-11-20T11:04:50.113Z,5.57
2018-11-20T11:07:50.302Z,4.77
2018-11-20T11:10:44.042Z,5.77
2018-11-20T11:13:37.819Z,6.60
2018-11-20T11:16:22.903Z,4.67
2018-11-20T11:19:14.454Z,5.33
2018-11-20T11:22:01.607Z,5.60
2018-11-20T11:24:52.202Z,5.30
2018-11-20T11:27:52.577Z,5.70
2018-11-20T11:30:44.311Z,6.10
2018-11-20T11:33:30.675Z,6.10
2018-11-20T11:36:16.827Z,5.93
2018-11-20T11:39:03.552Z,5.87
2018-11-20T11:41:54.278Z,5.50
2018-11-20T11:44:40.906Z,6.53
2018-11-20T11:47:27.255Z,5.83
2018-11-20T11:50:23.478Z,6.30
2018-11-20T11:53:14.288Z,6.17
2018-11-20T11:56:00.527Z,6.20
2018-11-20T11:58:57.078Z,6.10
2018-11-20T12:04:32.914Z,6.90
2018-11-20T12:07:19.747Z,7.00
2018-11-20T12:10:01.483Z,7.00
2018-11-20T12:13:04.182Z,7.50
2018-11-20T12:15:50.757Z,7.07
2018-11-20T12:18:41.246Z,6.97
2018-11-20T12:21:38.992Z,8.17
2018-11-20T12:24:29.255Z,8.87
2018-11-20T12:27:13.919Z,9.40
2018-11-20T12:30:07.730Z,10.07
2018-11-20T12:32:50.348Z,10.43
2018-11-20T12:35:36.170Z,13.60
2018-11-20T12:38:28.570Z,19.43
2018-11-20T12:41:28.603Z,29.17
2018-11-20T12:44:23.773Z,17.33
2018-11-20T12:47:26.611Z,30.13
2018-11-20T12:50:17.348Z,27.23
2018-11-20T12:53:05.299Z,19.87
2018-11-20T12:55:48.153Z,20.40
2018-11-20T12:58:43.191Z,13.83
2018-11-20T13:01:30.069Z,16.93
2018-11-20T13:04:16.584Z,22.10
2018-11-20T13:07:03.007Z,18.03
2018-11-20T13:09:43.801Z,20.33
2018-11-20T13:12:43.764Z,19.87
2018-11-20T13:15:29.079Z,31.43
2018-11-20T13:18:19.803Z,17.97
2018-11-20T13:21:05.937Z,17.93
2018-11-20T13:23:52.490Z,16.60
2018-11-20T13:26:39.143Z,17.80
2018-11-20T13:29:35.820Z,20.37
2018-11-20T13:32:25.170Z,18.53
2018-11-20T13:35:18.836Z,19.00
2018-11-20T13:38:09.535Z,25.67
2018-11-20T13:41:37.720Z,29.33
2018-11-20T13:44:26.480Z,16.07
2018-11-20T13:47:13.076Z,23.00
2018-11-20T13:50:12.838Z,32.27
2018-11-20T13:52:58.193Z,23.93
2018-11-20T13:55:57.937Z,41.30
2018-11-20T13:59:03.991Z,18.30
2018-11-20T14:01:57.905Z,33.83
2018-11-20T14:04:48.423Z,20.10
2018-11-20T14:07:34.715Z,22.73
2018-11-20T14:10:28.291Z,18.93
2018-11-20T14:13:28.222Z,63.53
2018-11-20T14:16:14.025Z,29.23
2018-11-20T14:19:00.513Z,53.20
2018-11-20T14:21:54.232Z,17.93
2018-11-20T14:24:40.609Z,19.70
2018-11-20T14:27:34.108Z,30.60
2018-11-20T14:30:24.902Z,22.63
2018-11-20T14:33:10.631Z,16.33
2018-11-20T14:35:56.961Z,16.57
2018-11-20T14:38:47.986Z,23.60
2018-11-20T14:41:34.611Z,25.57
2018-11-20T14:44:18.275Z,19.60
2018-11-20T14:47:04.714Z,18.40
2018-11-20T14:50:10.667Z,25.17
2018-11-20T14:52:58.746Z,20.23
2018-11-20T14:55:46.613Z,23.33
2018-11-20T14:58:33.527Z,13.30
2018-11-20T15:01:19.943Z,12.33
2018-11-20T15:04:13.702Z,12.23
2018-11-20T15:07:14.154Z,12.37
2018-11-20T15:10:02.444Z,12.90
2018-11-20T15:12:48.744Z,13.13
2018-11-20T15:15:39.043Z,12.40
2018-11-20T15:18:30.049Z,12.23
2018-11-20T15:21:20.503Z,13.53
2018-11-20T15:24:26.350Z,12.17
2018-11-20T15:27:12.885Z,13.07
2018-11-20T15:29:54.392Z,12.87
2018-11-20T15:32:38.993Z,13.00
2018-11-20T15:35:45.015Z,14.00
2018-11-20T15:38:38.560Z,14.03
2018-11-20T15:41:26.602Z,13.47
2018-11-20T15:44:14.494Z,16.23
2018-11-20T15:47:20.631Z,14.33
2018-11-20T15:50:17.872Z,13.83
2018-11-20T15:53:14.728Z,12.43
2018-11-20T15:56:01.355Z,14.27
2018-11-20T15:58:49.219Z,12.30
2018-11-20T16:01:38.671Z,13.03
2018-11-20T16:04:25.298Z,12.83
2018-11-20T16:07:11.716Z,12.53
2018-11-20T16:09:48.032Z,14.37
2018-11-20T16:12:34.964Z,16.53
2018-11-20T16:15:15.997Z,13.60
2018-11-20T16:18:02.198Z,13.30
2018-11-20T16:21:03.646Z,13.43
2018-11-20T16:23:50.454Z,13.60
2018-11-20T16:26:30.906Z,13.03
2018-11-20T16:29:18.764Z,14.33
2018-11-20T16:32:04.892Z,13.90
2018-11-20T16:34:55.729Z,14.67
2018-11-20T16:37:46.152Z,16.47
2018-11-20T16:40:51.849Z,15.40
2018-11-20T16:43:38.128Z,19.70
2018-11-20T16:46:29.580Z,15.50
2018-11-20T16:49:15.889Z,14.50
2018-11-20T16:52:03.714Z,15.77
2018-11-20T16:54:50.412Z,16.50
2018-11-20T16:57:56.566Z,15.60
2018-11-20T17:00:43.037Z,13.87
2018-11-20T17:03:29.754Z,14.63
2018-11-20T17:06:06.052Z,20.87
2018-11-20T17:08:52.529Z,23.30
2018-11-20T17:11:46.091Z,16.40
2018-11-20T17:14:22.753Z,15.90
2018-11-20T17:17:10.634Z,17.10
2018-11-20T17:19:57.043Z,18.93
2018-11-20T17:22:50.400Z,17.57
2018-11-20T17:25:49.188Z,12.47
2018-11-20T17:28:29.722Z,15.77
2018-11-20T17:31:16.310Z,16.57
2018-11-20T17:34:09.470Z,18.47
2018-11-20T17:37:05.218Z,14.77
2018-11-20T17:39:56.018Z,14.50
2018-11-20T17:42:51.941Z,15.37
2018-11-20T17:45:47.380Z,14.53
2018-11-20T17:48:44.090Z,18.23
2018-11-20T17:51:40.922Z,18.67
2018-11-20T17:54:31.596Z,15.50
2018-11-20T17:57:19.593Z,22.57
2018-11-20T18:00:13.441Z,27.97
2018-11-20T18:03:07.315Z,76.43
2018-11-20T18:05:53.716Z,69.50
2018-11-20T18:08:40.066Z,97.47
2018-11-20T18:11:33.995Z,136.20
2018-11-20T18:14:32.614Z,64.47
2018-11-20T18:17:20.757Z,110.57
2018-11-20T18:20:13.693Z,51.23
2018-11-20T18:23:12.395Z,25.93
2018-11-20T18:25:53.651Z,25.60
2018-11-20T18:28:39.859Z,31.47
2018-11-20T18:31:39.782Z,29.83
2018-11-20T18:34:30.338Z,18.97
2018-11-20T18:37:16.988Z,33.00
2018-11-20T18:40:10.411Z,34.80
2018-11-20T18:42:57.368Z,24.83
2018-11-20T18:45:44.117Z,62.87
2018-11-20T18:48:43.891Z,22.70
2018-11-20T18:51:24.523Z,20.97
2018-11-20T18:54:10.779Z,16.17
2018-11-20T18:57:10.471Z,20.63
2018-11-20T18:59:56.768Z,20.90
2018-11-20T19:02:33.011Z,22.40
2018-11-20T19:05:11.445Z,21.90
2018-11-20T19:07:56.057Z,23.20
2018-11-20T19:10:59.074Z,19.07
2018-11-20T19:13:45.398Z,24.27
2018-11-20T19:16:31.854Z,16.23
2018-11-20T19:19:38.228Z,35.37
2018-11-20T19:22:26.966Z,41.27
2018-11-20T19:25:11.802Z,25.10
2018-11-20T19:28:05.492Z,19.00
2018-11-20T19:30:59.398Z,21.07
2018-11-20T19:33:45.861Z,67.40
2018-11-20T19:36:36.727Z,96.10
2018-11-20T19:39:27.225Z,24.33
2018-11-20T19:42:30.252Z,27.23
2018-11-20T19:45:16.663Z,29.83
2018-11-20T19:48:13.345Z,24.83
2018-11-20T19:51:07.287Z,31.87
2018-11-20T19:54:10.235Z,37.33
2018-11-20T19:57:16.016Z,103.20
2018-11-20T20:00:15.574Z,43.40
2018-11-20T20:03:03.570Z,33.43
2018-11-20T20:05:48.926Z,26.97
2018-11-20T20:08:55.130Z,38.13
2018-11-20T20:11:57.725Z,20.60
2018-11-20T20:14:46.506Z,29.93
2018-11-20T20:17:48.249Z,28.37
2018-11-20T20:20:43.007Z,27.87
2018-11-20T20:23:39.495Z,18.87
2018-11-20T20:26:25.956Z,21.33
2018-11-20T20:29:12.397Z,17.17
2018-11-20T20:32:09.643Z,33.77
2018-11-20T20:35:03.427Z,26.87
2018-11-20T20:37:49.884Z,32.73
2018-11-20T20:40:36.932Z,42.23
2018-11-20T20:43:24.918Z,26.07
2018-11-20T20:46:19.920Z,49.80
2018-11-20T20:49:06.451Z,27.80
2018-11-20T20:52:06.380Z,17.27
2018-11-20T20:55:03.874Z,17.83
2018-11-20T20:58:09.935Z,15.97
2018-11-20T21:01:03.914Z,17.37
2018-11-20T21:03:55.057Z,17.53
2018-11-20T21:06:46.677Z,17.83
2018-11-20T21:09:33.092Z,17.47
2018-11-20T21:12:19.984Z,15.20
2018-11-20T21:15:24.616Z,14.87
2018-11-20T21:18:12.834Z,17.93
2018-11-20T21:20:59.574Z,20.33
2018-11-20T21:23:46.291Z,16.03
2018-11-20T21:26:36.764Z,16.70
2018-11-20T21:29:25.656Z,17.23
2018-11-20T21:32:17.187Z,19.37
2018-11-20T21:35:03.956Z,16.30
2018-11-20T21:37:51.351Z,14.73
2018-11-20T21:40:39.790Z,16.77
2018-11-20T21:43:40.652Z,17.50
2018-11-20T21:46:27.568Z,20.63
2018-11-20T21:49:13.998Z,17.87
2018-11-20T21:52:00.607Z,17.67
2018-11-20T21:54:55.064Z,15.70
2018-11-20T21:57:41.876Z,15.47
2018-11-20T22:00:36.832Z,15.63
2018-11-20T22:03:33.581Z,15.20
2018-11-20T22:06:19.884Z,15.27
2018-11-20T22:09:28.761Z,16.00
2018-11-20T22:12:15.350Z,14.70
2018-11-20T22:15:06.502Z,16.53
2018-11-20T22:17:54.971Z,17.80
2018-11-20T22:20:41.675Z,15.30
2018-11-20T22:23:28.974Z,14.93
2018-11-20T22:38:07.571Z,17.40
2018-11-20T22:40:55.403Z,16.50
2018-11-20T22:43:41.711Z,16.87
2018-11-20T22:46:41.438Z,15.27
2018-11-20T22:49:35.631Z,16.37
2018-11-20T22:52:19.226Z,15.87
2018-11-20T22:55:09.777Z,16.13
2018-11-20T22:58:08.938Z,17.17
2018-11-20T23:00:44.642Z,16.20
2018-11-20T23:03:35.492Z,15.60
2018-11-20T23:06:31.215Z,16.53
2018-11-20T23:09:00.067Z,15.90
2018-11-20T23:11:28.875Z,16.27
2018-11-20T23:13:57.737Z,15.70
2018-11-20T23:16:26.564Z,15.43
2018-11-20T23:18:55.366Z,16.67
2018-11-20T23:21:24.190Z,15.83
2018-11-20T23:23:53.034Z,16.50
2018-11-20T23:26:23.754Z,16.33
2018-11-20T23:28:50.605Z,16.60
2018-11-20T23:31:19.508Z,16.50
2018-11-20T23:33:50.584Z,16.53
2018-11-20T23:36:19.503Z,16.80
2018-11-20T23:38:51.230Z,17.30
2018-11-20T23:41:20.030Z,16.37
2018-11-20T23:43:48.843Z,17.17
2018-11-20T23:46:17.662Z,16.20
2018-11-20T23:48:46.420Z,16.30
2018-11-20T23:51:16.364Z,16.47
2018-11-20T23:53:45.168Z,15.33
2018-11-20T23:56:13.980Z,15.57
2018-11-20T23:58:43.852Z,16.23
